createdAt,value
2022-11-30T00:00:58.009Z,7.52
2022-11-30T00:03:25.586Z,7.51
2022-11-30T00:05:52.593Z,7.50
2022-11-30T00:08:19.137Z,7.50
2022-11-30T00:10:45.591Z,7.48
2022-11-30T00:13:12.100Z,7.48
2022-11-30T00:15:39.324Z,7.48
2022-11-30T00:18:05.783Z,7.47
2022-11-30T00:20:32.829Z,7.46
2022-11-30T00:22:59.297Z,7.45
2022-11-30T00:25:26.292Z,7.45
2022-11-30T00:27:52.992Z,7.45
2022-11-30T00:30:19.589Z,7.43
2022-11-30T00:32:46.116Z,7.43
2022-11-30T00:35:12.647Z,7.40
2022-11-30T00:37:39.195Z,7.37
2022-11-30T00:40:07.049Z,7.36
2022-11-30T00:42:33.625Z,7.36
2022-11-30T00:45:00.115Z,7.34
2022-11-30T00:47:26.578Z,7.32
2022-11-30T00:49:53.014Z,7.28
2022-11-30T00:52:19.524Z,7.26
2022-11-30T00:54:46.303Z,7.25
2022-11-30T00:57:12.910Z,7.25
2022-11-30T00:59:39.391Z,7.25
2022-11-30T01:02:06.059Z,7.19
2022-11-30T01:04:32.612Z,7.12
2022-11-30T01:06:59.023Z,7.07
2022-11-30T01:09:25.476Z,7.04
2022-11-30T01:11:51.913Z,7.02
2022-11-30T01:14:18.436Z,7.01
2022-11-30T01:16:44.956Z,7.01
2022-11-30T01:19:11.761Z,6.99
2022-11-30T01:21:38.464Z,6.97
2022-11-30T01:24:06.035Z,6.98
2022-11-30T01:26:32.550Z,7.00
2022-11-30T01:28:59.030Z,7.00
2022-11-30T01:31:25.951Z,6.99
2022-11-30T01:33:55.108Z,6.99
2022-11-30T01:36:25.470Z,7.01
2022-11-30T01:38:54.806Z,7.01
2022-11-30T01:41:30.939Z,6.99
2022-11-30T01:44:26.112Z,7.01
2022-11-30T01:47:12.001Z,7.00
2022-11-30T01:49:44.322Z,7.01
2022-11-30T01:52:21.799Z,7.01
2022-11-30T01:55:07.068Z,7.01
2022-11-30T01:57:38.215Z,7.00
2022-11-30T02:00:12.975Z,7.02
2022-11-30T02:02:49.852Z,7.02
2022-11-30T02:05:17.702Z,7.01
2022-11-30T02:07:45.060Z,7.01
2022-11-30T02:10:17.368Z,7.01
2022-11-30T02:13:12.526Z,6.97
2022-11-30T02:15:46.852Z,6.94
2022-11-30T02:18:24.510Z,6.93
2022-11-30T02:21:13.846Z,6.91
2022-11-30T02:24:28.429Z,6.87
2022-11-30T02:27:00.903Z,6.84
2022-11-30T02:30:01.841Z,6.84
2022-11-30T02:33:00.670Z,6.82
2022-11-30T02:35:32.570Z,6.80
2022-11-30T02:38:01.100Z,6.79
2022-11-30T02:40:27.841Z,6.76
2022-11-30T02:42:56.788Z,6.75
2022-11-30T02:45:53.945Z,6.75
2022-11-30T02:48:37.549Z,6.72
2022-11-30T02:51:09.117Z,6.72
2022-11-30T02:53:36.058Z,6.71
2022-11-30T02:56:02.730Z,6.70
2022-11-30T02:58:29.281Z,6.67
2022-11-30T03:00:55.709Z,6.66
2022-11-30T03:03:22.221Z,6.62
2022-11-30T03:05:48.713Z,6.61
2022-11-30T03:08:15.140Z,6.60
2022-11-30T03:10:41.607Z,6.61
2022-11-30T03:13:08.032Z,6.59
2022-11-30T03:15:35.430Z,6.58
2022-11-30T03:18:03.096Z,6.60
2022-11-30T03:20:29.704Z,6.60
2022-11-30T03:23:00.679Z,6.57
2022-11-30T03:25:27.896Z,6.59
2022-11-30T03:27:54.325Z,6.59
2022-11-30T03:30:20.918Z,6.58
2022-11-30T03:32:47.412Z,6.57
2022-11-30T03:35:14.104Z,6.55
2022-11-30T03:37:40.608Z,6.56
2022-11-30T03:40:07.901Z,6.50
2022-11-30T03:42:34.385Z,6.47
2022-11-30T03:45:00.947Z,6.48
2022-11-30T03:47:27.371Z,6.47
2022-11-30T03:49:53.778Z,6.46
2022-11-30T03:52:20.401Z,6.49
2022-11-30T03:54:47.227Z,6.48
2022-11-30T03:57:13.890Z,6.49
2022-11-30T03:59:40.377Z,6.50
2022-11-30T04:02:06.864Z,6.51
2022-11-30T04:04:33.317Z,6.50
2022-11-30T04:06:59.752Z,6.49
2022-11-30T04:09:26.289Z,6.48
2022-11-30T04:11:52.883Z,6.46
2022-11-30T04:14:19.348Z,6.43
2022-11-30T04:16:45.841Z,6.40
2022-11-30T04:19:12.393Z,6.40
2022-11-30T04:21:38.980Z,6.36
2022-11-30T04:24:05.882Z,6.31
2022-11-30T04:26:32.419Z,6.31
2022-11-30T04:29:01.203Z,6.29
2022-11-30T04:31:31.035Z,6.25
2022-11-30T04:33:57.671Z,6.25
2022-11-30T04:36:24.313Z,6.25
2022-11-30T04:38:50.855Z,6.23
2022-11-30T04:41:17.365Z,6.24
2022-11-30T04:43:43.916Z,6.23
2022-11-30T04:46:10.809Z,6.22
2022-11-30T04:48:37.832Z,6.22
2022-11-30T04:51:07.217Z,6.23
2022-11-30T04:53:34.918Z,6.23
2022-11-30T04:56:09.262Z,6.23
2022-11-30T04:58:36.803Z,6.20
2022-11-30T05:01:03.460Z,6.21
2022-11-30T05:03:30.064Z,6.17
2022-11-30T05:05:56.537Z,6.14
2022-11-30T05:08:23.038Z,6.13
2022-11-30T05:10:53.634Z,6.11
2022-11-30T05:13:22.953Z,6.09
2022-11-30T05:15:49.967Z,6.09
2022-11-30T05:18:16.915Z,6.09
2022-11-30T05:20:48.212Z,6.10
2022-11-30T05:23:15.656Z,6.10
2022-11-30T05:25:42.909Z,6.05
2022-11-30T05:28:09.600Z,6.02
2022-11-30T05:30:36.094Z,5.98
2022-11-30T05:33:02.601Z,5.93
2022-11-30T05:35:29.108Z,5.90
2022-11-30T05:37:55.564Z,5.84
2022-11-30T05:40:22.060Z,5.85
2022-11-30T05:42:54.332Z,5.87
2022-11-30T05:45:20.794Z,5.85
2022-11-30T05:47:47.284Z,5.86
2022-11-30T05:50:13.834Z,5.83
2022-11-30T05:52:40.331Z,5.83
2022-11-30T05:55:07.059Z,5.84
2022-11-30T05:57:38.016Z,5.83
2022-11-30T06:00:06.551Z,5.78
2022-11-30T06:02:33.369Z,5.75
2022-11-30T06:04:59.960Z,5.72
2022-11-30T06:07:26.493Z,5.68
2022-11-30T06:09:53.065Z,5.64
2022-11-30T06:12:19.640Z,5.59
2022-11-30T06:14:46.343Z,5.54
2022-11-30T06:17:13.058Z,5.46
2022-11-30T06:19:39.520Z,5.39
2022-11-30T06:22:05.927Z,5.32
2022-11-30T06:24:32.368Z,5.23
2022-11-30T06:26:58.920Z,5.18
2022-11-30T06:29:25.408Z,5.12
2022-11-30T06:31:51.982Z,5.07
2022-11-30T06:34:18.606Z,4.99
2022-11-30T06:36:45.047Z,4.93
2022-11-30T06:39:12.847Z,4.83
2022-11-30T06:41:40.059Z,4.78
2022-11-30T06:44:09.052Z,4.75
2022-11-30T06:46:35.530Z,4.70
2022-11-30T06:49:02.131Z,4.65
2022-11-30T06:51:28.808Z,4.63
2022-11-30T06:53:55.364Z,4.54
2022-11-30T06:56:22.053Z,4.48
2022-11-30T06:58:48.563Z,4.40
2022-11-30T07:01:15.425Z,4.40
2022-11-30T07:03:42.423Z,4.36
2022-11-30T07:06:11.772Z,4.36
2022-11-30T07:08:39.373Z,4.31
2022-11-30T07:11:07.219Z,4.27
2022-11-30T07:13:33.816Z,4.25
2022-11-30T07:16:04.999Z,4.24
2022-11-30T07:18:32.248Z,4.23
2022-11-30T07:21:00.997Z,4.25
2022-11-30T07:23:50.779Z,4.25
2022-11-30T07:26:22.094Z,4.26
2022-11-30T07:28:54.651Z,4.32
2022-11-30T07:31:21.341Z,4.33
2022-11-30T07:33:49.348Z,4.35
2022-11-30T07:36:17.920Z,4.33
2022-11-30T07:38:44.803Z,4.32
2022-11-30T07:41:11.764Z,4.33
2022-11-30T07:43:38.362Z,4.33
2022-11-30T07:46:05.479Z,4.34
2022-11-30T07:48:33.952Z,4.37
2022-11-30T07:51:05.344Z,4.43
2022-11-30T07:53:32.106Z,4.47
2022-11-30T07:56:06.516Z,4.49
2022-11-30T07:58:33.334Z,4.55
2022-11-30T08:01:12.536Z,4.56
2022-11-30T08:03:39.256Z,4.57
2022-11-30T08:06:08.508Z,4.59
2022-11-30T08:08:37.792Z,4.63
2022-11-30T08:11:05.588Z,4.64
2022-11-30T08:13:32.845Z,4.69
2022-11-30T08:16:04.917Z,4.72
2022-11-30T08:18:31.440Z,4.70
2022-11-30T08:21:03.597Z,4.69
2022-11-30T08:23:31.892Z,4.67
2022-11-30T08:26:12.143Z,4.66
2022-11-30T08:28:38.866Z,4.65
2022-11-30T08:31:09.337Z,4.68
2022-11-30T08:33:37.162Z,4.74
2022-11-30T08:36:07.958Z,4.79
2022-11-30T08:38:35.017Z,4.82
2022-11-30T08:41:02.017Z,4.96
2022-11-30T08:43:28.835Z,5.07
2022-11-30T08:45:57.416Z,5.20
2022-11-30T08:48:24.453Z,5.23
2022-11-30T08:50:51.164Z,5.30
2022-11-30T08:53:17.680Z,5.34
2022-11-30T08:55:44.221Z,5.37
2022-11-30T08:58:10.650Z,5.44
2022-11-30T09:00:37.166Z,5.50
2022-11-30T09:03:03.781Z,5.54
2022-11-30T09:05:30.548Z,5.63
2022-11-30T09:07:57.108Z,5.75
2022-11-30T09:10:23.632Z,5.87
2022-11-30T09:12:50.121Z,6.00
2022-11-30T09:15:16.591Z,6.09
2022-11-30T09:17:43.254Z,6.20
2022-11-30T09:20:10.184Z,6.29
2022-11-30T09:22:36.894Z,6.36
2022-11-30T09:25:03.589Z,6.39
2022-11-30T09:27:32.472Z,6.44
2022-11-30T09:29:59.145Z,6.45
2022-11-30T09:32:25.934Z,6.43
2022-11-30T09:34:52.752Z,6.49
2022-11-30T09:37:19.654Z,6.54
2022-11-30T09:39:46.796Z,6.58
2022-11-30T09:42:32.051Z,6.59
2022-11-30T09:45:02.189Z,6.64
2022-11-30T09:47:47.338Z,6.63
2022-11-30T09:50:18.363Z,6.64
2022-11-30T09:52:52.265Z,6.64
2022-11-30T09:55:30.612Z,6.58
2022-11-30T09:58:01.988Z,6.59
2022-11-30T10:00:28.684Z,6.67
2022-11-30T10:02:58.796Z,6.83
2022-11-30T10:05:45.206Z,6.93
2022-11-30T10:08:31.383Z,6.91
2022-11-30T10:11:32.547Z,6.83
2022-11-30T10:14:25.023Z,6.80
2022-11-30T10:17:16.715Z,6.81
2022-11-30T10:20:00.685Z,6.83
2022-11-30T10:22:52.121Z,6.87
2022-11-30T10:25:24.395Z,6.95
2022-11-30T10:27:53.742Z,7.02
2022-11-30T10:30:25.544Z,7.06
2022-11-30T10:32:54.745Z,7.06
2022-11-30T10:35:33.177Z,7.06
2022-11-30T10:38:09.646Z,7.06
2022-11-30T10:40:55.425Z,7.09
2022-11-30T10:43:32.897Z,7.16
2022-11-30T10:45:59.912Z,7.27
2022-11-30T10:48:40.827Z,7.36
2022-11-30T10:51:08.244Z,7.45
2022-11-30T10:53:34.741Z,7.58
2022-11-30T10:56:08.354Z,7.67
2022-11-30T10:58:40.165Z,7.79
2022-11-30T11:01:27.870Z,7.83
2022-11-30T11:04:12.755Z,7.87
2022-11-30T11:06:59.454Z,7.83
2022-11-30T11:09:49.071Z,7.78
2022-11-30T11:12:27.799Z,7.78
2022-11-30T11:15:13.496Z,7.81
2022-11-30T11:17:40.004Z,7.82
2022-11-30T11:20:26.481Z,7.90
2022-11-30T11:22:53.061Z,7.98
2022-11-30T11:25:22.610Z,8.00
2022-11-30T11:27:54.708Z,8.04
2022-11-30T11:30:27.209Z,8.06
2022-11-30T11:33:12.104Z,7.98
2022-11-30T11:35:50.992Z,7.96
2022-11-30T11:38:24.284Z,7.94
2022-11-30T11:41:02.497Z,7.92
2022-11-30T11:43:32.326Z,7.88
2022-11-30T11:46:12.446Z,7.78
2022-11-30T11:48:56.173Z,7.77
2022-11-30T11:51:34.441Z,7.80
2022-11-30T11:54:27.398Z,7.83
2022-11-30T11:56:56.599Z,7.83
2022-11-30T11:59:32.901Z,7.78
2022-11-30T12:02:16.772Z,7.82
2022-11-30T12:04:50.416Z,7.98
2022-11-30T12:07:27.304Z,8.08
2022-11-30T12:10:35.683Z,8.09
2022-11-30T12:12:59.357Z,8.00
2022-11-30T12:15:42.886Z,7.93
2022-11-30T12:18:23.758Z,7.85
2022-11-30T12:20:59.718Z,7.82
2022-11-30T12:23:44.983Z,7.72
2022-11-30T12:26:36.250Z,7.62
2022-11-30T12:29:41.458Z,7.58
2022-11-30T12:32:30.616Z,7.63
2022-11-30T12:35:15.545Z,7.82
2022-11-30T12:38:08.037Z,7.98
2022-11-30T12:41:08.599Z,8.07
2022-11-30T12:44:04.221Z,7.97
2022-11-30T12:47:21.010Z,7.78
2022-11-30T12:50:08.923Z,7.66
2022-11-30T12:52:38.401Z,7.60
2022-11-30T12:55:26.618Z,7.51
2022-11-30T12:58:08.016Z,7.47
2022-11-30T13:00:49.615Z,7.43
2022-11-30T13:03:34.584Z,7.52
2022-11-30T13:06:10.042Z,7.57
2022-11-30T13:08:51.384Z,7.54
2022-11-30T13:11:26.507Z,7.54
2022-11-30T13:13:57.185Z,7.51
2022-11-30T13:16:25.493Z,7.47
2022-11-30T13:18:58.729Z,7.43
2022-11-30T13:21:51.049Z,7.38
2022-11-30T13:24:24.977Z,7.30
2022-11-30T13:26:57.640Z,7.22
2022-11-30T13:29:53.972Z,7.13
2022-11-30T13:35:29.344Z,7.10
2022-11-30T13:38:36.838Z,7.23
2022-11-30T13:41:07.495Z,7.37
2022-11-30T13:43:45.480Z,7.51
2022-11-30T13:46:16.393Z,7.51
2022-11-30T13:48:44.813Z,7.48
2022-11-30T13:51:11.980Z,7.42
2022-11-30T13:53:40.381Z,7.33
2022-11-30T13:56:34.325Z,7.27
2022-11-30T13:59:35.866Z,7.26
2022-11-30T14:02:33.786Z,7.26
2022-11-30T14:05:18.725Z,7.26
2022-11-30T14:08:00.497Z,7.25
2022-11-30T14:10:31.351Z,7.25
2022-11-30T14:13:06.906Z,7.25
2022-11-30T14:15:39.626Z,7.22
2022-11-30T14:18:08.833Z,7.20
2022-11-30T14:20:42.855Z,7.16
2022-11-30T14:23:15.549Z,7.11
2022-11-30T14:25:50.509Z,7.06
2022-11-30T14:28:49.125Z,7.00
2022-11-30T14:31:20.742Z,6.96
2022-11-30T14:33:56.089Z,6.90
2022-11-30T14:36:27.367Z,6.87
2022-11-30T14:38:53.999Z,6.83
2022-11-30T14:41:29.022Z,6.82
2022-11-30T14:44:05.048Z,6.76
2022-11-30T14:46:35.154Z,6.73
2022-11-30T14:49:15.028Z,6.65
2022-11-30T14:51:44.908Z,6.57
2022-11-30T14:54:14.489Z,6.51
2022-11-30T14:56:47.317Z,6.45
2022-11-30T14:59:38.092Z,6.36
2022-11-30T15:02:12.452Z,6.33
2022-11-30T15:04:39.096Z,6.28
2022-11-30T15:07:13.510Z,6.22
2022-11-30T15:09:43.594Z,6.16
2022-11-30T15:12:10.366Z,6.07
2022-11-30T15:14:36.982Z,5.98
2022-11-30T15:17:03.567Z,5.92
2022-11-30T15:19:34.567Z,5.89
2022-11-30T15:22:01.070Z,5.87
2022-11-30T15:24:29.569Z,5.86
2022-11-30T15:27:23.649Z,5.89
2022-11-30T15:30:00.629Z,5.84
2022-11-30T15:32:27.601Z,5.79
2022-11-30T15:34:57.471Z,5.78
2022-11-30T15:37:32.701Z,5.73
2022-11-30T15:40:01.862Z,5.69
2022-11-30T15:42:30.412Z,5.66
2022-11-30T15:45:18.811Z,5.63
2022-11-30T15:47:45.546Z,5.56
2022-11-30T15:50:39.142Z,5.46
2022-11-30T15:53:27.776Z,5.41
2022-11-30T15:56:01.437Z,5.45
2022-11-30T15:58:31.281Z,5.50
2022-11-30T16:01:10.623Z,5.52
2022-11-30T16:03:55.571Z,5.50
2022-11-30T16:06:24.246Z,5.54
2022-11-30T16:08:51.580Z,5.59
2022-11-30T16:11:19.583Z,5.64
2022-11-30T16:13:47.510Z,5.68
2022-11-30T16:16:19.770Z,5.70
2022-11-30T16:18:46.688Z,5.70
2022-11-30T16:21:16.550Z,5.70
2022-11-30T16:23:43.784Z,5.69
2022-11-30T16:29:04.864Z,5.70
2022-11-30T16:31:31.584Z,5.72
2022-11-30T16:33:58.255Z,5.76
2022-11-30T16:36:24.876Z,5.78
2022-11-30T16:38:52.998Z,5.81
2022-11-30T16:41:25.603Z,5.83
2022-11-30T16:43:55.363Z,5.82
2022-11-30T16:46:24.295Z,5.84
2022-11-30T16:48:51.375Z,5.84
2022-11-30T16:51:27.826Z,5.83
2022-11-30T16:53:55.350Z,5.85
2022-11-30T16:56:21.928Z,5.83
2022-11-30T16:58:48.846Z,5.81
2022-11-30T17:01:19.590Z,5.76
2022-11-30T17:03:48.801Z,5.66
2022-11-30T17:06:21.029Z,5.59
2022-11-30T17:08:49.044Z,5.54
2022-11-30T17:11:32.022Z,5.45
2022-11-30T17:13:58.563Z,5.36
2022-11-30T17:16:25.374Z,5.29
2022-11-30T17:18:51.990Z,5.19
2022-11-30T17:21:25.014Z,5.16
2022-11-30T17:23:51.602Z,5.11
2022-11-30T17:26:18.098Z,5.08
2022-11-30T17:28:44.619Z,5.01
2022-11-30T17:31:11.679Z,4.91
2022-11-30T17:33:41.334Z,4.79
2022-11-30T17:36:13.159Z,4.67
2022-11-30T17:38:40.084Z,4.58
2022-11-30T17:41:07.754Z,4.54
2022-11-30T17:43:36.171Z,4.49
2022-11-30T17:46:08.683Z,4.44
2022-11-30T17:48:35.535Z,4.39
2022-11-30T17:51:02.368Z,4.36
2022-11-30T17:53:28.944Z,4.29
2022-11-30T17:56:06.037Z,4.20
2022-11-30T17:58:36.034Z,4.17
2022-11-30T18:01:03.700Z,4.18
2022-11-30T18:03:30.306Z,4.11
2022-11-30T18:06:03.569Z,4.06
2022-11-30T18:08:32.647Z,3.90
2022-11-30T18:10:59.168Z,3.73
2022-11-30T18:13:29.505Z,3.72
2022-11-30T18:16:12.481Z,3.67
2022-11-30T18:18:45.803Z,3.65
2022-11-30T18:21:16.385Z,3.64
2022-11-30T18:23:42.883Z,3.65
2022-11-30T18:26:12.982Z,3.69
2022-11-30T18:28:39.544Z,3.67
2022-11-30T18:31:06.782Z,3.67
2022-11-30T18:33:34.624Z,3.66
2022-11-30T18:36:02.139Z,3.61
2022-11-30T18:38:32.853Z,3.54
2022-11-30T18:41:04.104Z,3.53
2022-11-30T18:43:31.762Z,3.56
2022-11-30T18:46:09.761Z,3.61
2022-11-30T18:48:37.751Z,3.69
2022-11-30T18:51:16.751Z,3.74
2022-11-30T18:53:43.945Z,3.74
2022-11-30T18:56:15.966Z,3.76
2022-11-30T18:58:42.744Z,3.82
2022-11-30T19:01:11.854Z,3.87
2022-11-30T19:03:38.584Z,3.91
2022-11-30T19:06:07.095Z,3.93
2022-11-30T19:08:34.673Z,4.05
2022-11-30T19:11:05.993Z,4.19
2022-11-30T19:13:33.354Z,4.21
2022-11-30T19:16:09.494Z,4.28
2022-11-30T19:18:36.261Z,4.33
2022-11-30T19:21:10.571Z,4.33
2022-11-30T19:23:38.738Z,4.33
2022-11-30T19:26:07.077Z,4.33
2022-11-30T19:28:35.457Z,4.27
2022-11-30T19:31:08.329Z,4.19
2022-11-30T19:33:36.877Z,4.15
2022-11-30T19:36:05.414Z,4.06
2022-11-30T19:38:32.042Z,4.03
2022-11-30T19:40:58.568Z,4.03
2022-11-30T19:43:25.037Z,3.99
2022-11-30T19:45:51.594Z,3.96
2022-11-30T19:48:18.335Z,3.93
2022-11-30T19:50:44.862Z,3.87
2022-11-30T19:53:11.420Z,3.81
2022-11-30T19:55:39.527Z,3.80
2022-11-30T19:58:06.054Z,3.73
2022-11-30T20:00:32.602Z,3.62
2022-11-30T20:02:59.096Z,3.61
2022-11-30T20:05:25.641Z,3.59
2022-11-30T20:07:52.222Z,3.55
2022-11-30T20:10:18.731Z,3.55
2022-11-30T20:12:45.272Z,3.51
2022-11-30T20:15:12.138Z,3.47
2022-11-30T20:17:38.579Z,3.39
2022-11-30T20:20:05.695Z,3.30
2022-11-30T20:22:33.013Z,3.36
2022-11-30T20:24:59.481Z,3.39
2022-11-30T20:27:26.190Z,3.41
2022-11-30T20:29:52.751Z,3.43
2022-11-30T20:32:19.741Z,3.48
2022-11-30T20:34:46.683Z,3.56
2022-11-30T20:37:13.725Z,3.62
2022-11-30T20:39:45.744Z,3.66
2022-11-30T20:42:13.057Z,3.83
2022-11-30T20:44:39.624Z,3.98
2022-11-30T20:47:06.114Z,4.07
2022-11-30T20:49:32.606Z,4.09
2022-11-30T20:51:59.150Z,4.13
2022-11-30T20:54:25.647Z,4.16
2022-11-30T20:56:52.136Z,4.18
2022-11-30T20:59:23.625Z,4.18
2022-11-30T21:01:50.489Z,4.21
2022-11-30T21:04:17.076Z,4.21
2022-11-30T21:06:45.544Z,4.21
2022-11-30T21:09:17.199Z,4.21
2022-11-30T21:11:44.468Z,4.24
2022-11-30T21:14:11.804Z,4.27
2022-11-30T21:16:39.075Z,4.28
2022-11-30T21:19:06.394Z,4.30
2022-11-30T21:21:35.094Z,4.31
2022-11-30T21:24:04.775Z,4.29
2022-11-30T21:26:34.302Z,4.29
2022-11-30T21:29:06.986Z,4.26
2022-11-30T21:31:33.636Z,4.24
2022-11-30T21:34:00.612Z,4.24
2022-11-30T21:36:28.107Z,4.24
2022-11-30T21:39:01.032Z,4.24
2022-11-30T21:41:30.881Z,4.23
2022-11-30T21:43:57.525Z,4.22
2022-11-30T21:46:24.133Z,4.19
2022-11-30T21:48:51.129Z,4.18
2022-11-30T21:51:20.834Z,4.14
2022-11-30T21:53:49.997Z,4.14
2022-11-30T21:56:19.249Z,4.12
2022-11-30T21:58:47.971Z,4.09
2022-11-30T22:01:27.316Z,4.07
2022-11-30T22:03:55.745Z,4.05
2022-11-30T22:06:23.617Z,4.08
2022-11-30T22:08:50.175Z,4.08
2022-11-30T22:11:19.393Z,4.10
2022-11-30T22:13:50.768Z,4.17
2022-11-30T22:16:18.377Z,4.20
2022-11-30T22:18:45.621Z,4.23
2022-11-30T22:21:14.710Z,4.25
2022-11-30T22:23:43.596Z,4.22
2022-11-30T22:30:06.273Z,4.15
2022-11-30T22:32:32.700Z,4.10
2022-11-30T22:34:59.206Z,4.08
2022-11-30T22:37:31.005Z,4.04
2022-11-30T22:44:17.506Z,3.87
2022-11-30T22:54:32.062Z,3.63
2022-11-30T23:05:18.938Z,3.54
2022-11-30T23:15:42.027Z,3.58
